sensor_id;sensor_type;location;lat;lon;timestamp;P1;durP1;ratioP1;P2;durP2;ratioP2
48635;SDS011;34429;52.332;5.614;2022-12-08T00:01:38;13.55;;;4.00;;
48635;SDS011;34429;52.332;5.614;2022-12-08T00:04:06;10.05;;;4.07;;
48635;SDS011;34429;52.332;5.614;2022-12-08T00:06:38;7.20;;;3.63;;
48635;SDS011;34429;52.332;5.614;2022-12-08T00:09:26;7.97;;;3.40;;
48635;SDS011;34429;52.332;5.614;2022-12-08T00:11:58;5.45;;;3.15;;
48635;SDS011;34429;52.332;5.614;2022-12-08T00:14:28;5.13;;;3.40;;
48635;SDS011;34429;52.332;5.614;2022-12-08T00:16:59;7.97;;;3.50;;
48635;SDS011;34429;52.332;5.614;2022-12-08T00:19:28;5.40;;;3.42;;
48635;SDS011;34429;52.332;5.614;2022-12-08T00:22:00;7.63;;;3.70;;
48635;SDS011;34429;52.332;5.614;2022-12-08T00:24:29;7.00;;;3.25;;
48635;SDS011;34429;52.332;5.614;2022-12-08T00:26:59;7.55;;;3.60;;
48635;SDS011;34429;52.332;5.614;2022-12-08T00:29:27;8.40;;;3.60;;
48635;SDS011;34429;52.332;5.614;2022-12-08T00:31:56;5.40;;;3.07;;
48635;SDS011;34429;52.332;5.614;2022-12-08T00:34:24;6.85;;;3.03;;
48635;SDS011;34429;52.332;5.614;2022-12-08T00:36:52;5.55;;;3.20;;
48635;SDS011;34429;52.332;5.614;2022-12-08T00:39:23;9.80;;;3.55;;
48635;SDS011;34429;52.332;5.614;2022-12-08T00:41:52;7.13;;;3.20;;
48635;SDS011;34429;52.332;5.614;2022-12-08T00:44:32;8.80;;;3.22;;
48635;SDS011;34429;52.332;5.614;2022-12-08T00:47:01;4.95;;;3.00;;
48635;SDS011;34429;52.332;5.614;2022-12-08T00:49:29;5.63;;;3.67;;
48635;SDS011;34429;52.332;5.614;2022-12-08T00:51:57;5.15;;;3.10;;
48635;SDS011;34429;52.332;5.614;2022-12-08T00:54:28;9.73;;;3.08;;
48635;SDS011;34429;52.332;5.614;2022-12-08T00:56:57;9.60;;;3.65;;
48635;SDS011;34429;52.332;5.614;2022-12-08T00:59:25;5.97;;;3.10;;
48635;SDS011;34429;52.332;5.614;2022-12-08T01:01:53;7.47;;;3.42;;
48635;SDS011;34429;52.332;5.614;2022-12-08T01:04:22;7.45;;;3.38;;
48635;SDS011;34429;52.332;5.614;2022-12-08T01:06:50;7.03;;;3.88;;
48635;SDS011;34429;52.332;5.614;2022-12-08T01:09:18;6.50;;;3.87;;
48635;SDS011;34429;52.332;5.614;2022-12-08T01:11:49;5.93;;;3.88;;
48635;SDS011;34429;52.332;5.614;2022-12-08T01:14:18;8.55;;;4.15;;
48635;SDS011;34429;52.332;5.614;2022-12-08T01:16:46;7.82;;;4.45;;
48635;SDS011;34429;52.332;5.614;2022-12-08T01:19:15;7.25;;;3.88;;
48635;SDS011;34429;52.332;5.614;2022-12-08T01:21:44;7.22;;;4.53;;
48635;SDS011;34429;52.332;5.614;2022-12-08T01:24:14;10.73;;;4.13;;
48635;SDS011;34429;52.332;5.614;2022-12-08T01:26:44;8.00;;;3.90;;
48635;SDS011;34429;52.332;5.614;2022-12-08T01:29:15;7.28;;;4.72;;
48635;SDS011;34429;52.332;5.614;2022-12-08T01:31:44;9.10;;;4.20;;
48635;SDS011;34429;52.332;5.614;2022-12-08T01:34:13;8.83;;;5.10;;
48635;SDS011;34429;52.332;5.614;2022-12-08T01:36:42;12.32;;;5.00;;
48635;SDS011;34429;52.332;5.614;2022-12-08T01:39:13;8.82;;;4.97;;
48635;SDS011;34429;52.332;5.614;2022-12-08T01:41:43;12.20;;;5.93;;
48635;SDS011;34429;52.332;5.614;2022-12-08T01:47:23;13.95;;;6.88;;
48635;SDS011;34429;52.332;5.614;2022-12-08T01:49:54;12.77;;;7.03;;
48635;SDS011;34429;52.332;5.614;2022-12-08T01:52:23;12.07;;;7.53;;
48635;SDS011;34429;52.332;5.614;2022-12-08T01:54:57;12.88;;;7.90;;
48635;SDS011;34429;52.332;5.614;2022-12-08T01:57:29;16.02;;;7.40;;
48635;SDS011;34429;52.332;5.614;2022-12-08T02:00:12;12.98;;;7.45;;
48635;SDS011;34429;52.332;5.614;2022-12-08T02:02:45;13.25;;;7.85;;
48635;SDS011;34429;52.332;5.614;2022-12-08T02:05:19;16.75;;;6.63;;
48635;SDS011;34429;52.332;5.614;2022-12-08T02:07:49;12.52;;;6.88;;
48635;SDS011;34429;52.332;5.614;2022-12-08T02:10:19;9.68;;;5.68;;
48635;SDS011;34429;52.332;5.614;2022-12-08T02:12:50;12.95;;;6.07;;
48635;SDS011;34429;52.332;5.614;2022-12-08T02:15:23;11.38;;;5.53;;
48635;SDS011;34429;52.332;5.614;2022-12-08T02:18:02;10.52;;;5.28;;
48635;SDS011;34429;52.332;5.614;2022-12-08T02:20:48;7.35;;;3.90;;
48635;SDS011;34429;52.332;5.614;2022-12-08T02:23:25;7.20;;;4.30;;
48635;SDS011;34429;52.332;5.614;2022-12-08T02:26:13;4.88;;;3.63;;
48635;SDS011;34429;52.332;5.614;2022-12-08T02:29:12;9.57;;;3.85;;
48635;SDS011;34429;52.332;5.614;2022-12-08T02:32:27;6.43;;;4.00;;
48635;SDS011;34429;52.332;5.614;2022-12-08T02:35:19;10.45;;;4.50;;
48635;SDS011;34429;52.332;5.614;2022-12-08T02:37:55;8.55;;;5.28;;
48635;SDS011;34429;52.332;5.614;2022-12-08T02:40:32;9.82;;;5.55;;
48635;SDS011;34429;52.332;5.614;2022-12-08T02:43:06;12.48;;;6.63;;
48635;SDS011;34429;52.332;5.614;2022-12-08T02:45:40;14.80;;;7.05;;
48635;SDS011;34429;52.332;5.614;2022-12-08T02:48:13;12.52;;;7.78;;
48635;SDS011;34429;52.332;5.614;2022-12-08T02:50:45;14.20;;;8.30;;
48635;SDS011;34429;52.332;5.614;2022-12-08T02:53:13;11.55;;;7.20;;
48635;SDS011;34429;52.332;5.614;2022-12-08T02:55:43;12.43;;;6.88;;
48635;SDS011;34429;52.332;5.614;2022-12-08T03:01:30;11.27;;;5.43;;
48635;SDS011;34429;52.332;5.614;2022-12-08T03:04:13;8.88;;;5.70;;
48635;SDS011;34429;52.332;5.614;2022-12-08T03:06:51;11.88;;;5.97;;
48635;SDS011;34429;52.332;5.614;2022-12-08T03:09:28;8.25;;;5.30;;
48635;SDS011;34429;52.332;5.614;2022-12-08T03:12:04;8.07;;;4.78;;
48635;SDS011;34429;52.332;5.614;2022-12-08T03:14:40;10.90;;;5.88;;
48635;SDS011;34429;52.332;5.614;2022-12-08T03:17:14;8.77;;;5.90;;
48635;SDS011;34429;52.332;5.614;2022-12-08T03:19:45;10.13;;;6.47;;
48635;SDS011;34429;52.332;5.614;2022-12-08T03:22:18;13.27;;;6.03;;
48635;SDS011;34429;52.332;5.614;2022-12-08T03:24:49;11.10;;;6.38;;
48635;SDS011;34429;52.332;5.614;2022-12-08T03:27:19;13.93;;;7.05;;
48635;SDS011;34429;52.332;5.614;2022-12-08T03:29:51;15.57;;;7.43;;
48635;SDS011;34429;52.332;5.614;2022-12-08T03:32:21;11.50;;;6.65;;
48635;SDS011;34429;52.332;5.614;2022-12-08T03:34:53;12.30;;;6.85;;
48635;SDS011;34429;52.332;5.614;2022-12-08T03:37:28;11.32;;;7.20;;
48635;SDS011;34429;52.332;5.614;2022-12-08T03:39:57;11.98;;;7.28;;
48635;SDS011;34429;52.332;5.614;2022-12-08T03:42:25;13.05;;;8.05;;
48635;SDS011;34429;52.332;5.614;2022-12-08T03:44:53;11.43;;;7.13;;
48635;SDS011;34429;52.332;5.614;2022-12-08T03:47:21;12.93;;;7.90;;
48635;SDS011;34429;52.332;5.614;2022-12-08T03:49:50;11.85;;;8.05;;
48635;SDS011;34429;52.332;5.614;2022-12-08T03:52:18;14.13;;;8.10;;
48635;SDS011;34429;52.332;5.614;2022-12-08T03:54:49;12.40;;;7.45;;
48635;SDS011;34429;52.332;5.614;2022-12-08T03:57:17;14.18;;;8.77;;
48635;SDS011;34429;52.332;5.614;2022-12-08T03:59:46;13.77;;;8.50;;
48635;SDS011;34429;52.332;5.614;2022-12-08T04:02:14;11.97;;;7.63;;
48635;SDS011;34429;52.332;5.614;2022-12-08T04:04:43;14.18;;;7.03;;
48635;SDS011;34429;52.332;5.614;2022-12-08T04:07:11;12.25;;;7.40;;
48635;SDS011;34429;52.332;5.614;2022-12-08T04:09:39;11.70;;;7.13;;
48635;SDS011;34429;52.332;5.614;2022-12-08T04:12:11;11.40;;;6.55;;
48635;SDS011;34429;52.332;5.614;2022-12-08T04:14:39;12.43;;;7.55;;
48635;SDS011;34429;52.332;5.614;2022-12-08T04:17:08;11.82;;;6.28;;
48635;SDS011;34429;52.332;5.614;2022-12-08T04:19:36;11.63;;;6.65;;
48635;SDS011;34429;52.332;5.614;2022-12-08T04:22:05;10.17;;;6.23;;
48635;SDS011;34429;52.332;5.614;2022-12-08T04:24:33;10.10;;;5.88;;
48635;SDS011;34429;52.332;5.614;2022-12-08T04:27:02;7.90;;;4.57;;
48635;SDS011;34429;52.332;5.614;2022-12-08T04:29:33;7.37;;;4.33;;
48635;SDS011;34429;52.332;5.614;2022-12-08T04:32:01;8.68;;;4.30;;
48635;SDS011;34429;52.332;5.614;2022-12-08T04:34:29;7.47;;;4.10;;
48635;SDS011;34429;52.332;5.614;2022-12-08T04:36:57;7.95;;;4.70;;
48635;SDS011;34429;52.332;5.614;2022-12-08T04:39:26;6.35;;;3.22;;
48635;SDS011;34429;52.332;5.614;2022-12-08T04:41:54;9.35;;;4.05;;
48635;SDS011;34429;52.332;5.614;2022-12-08T04:44:22;6.97;;;3.50;;
48635;SDS011;34429;52.332;5.614;2022-12-08T04:46:53;6.15;;;3.88;;
48635;SDS011;34429;52.332;5.614;2022-12-08T04:49:22;6.53;;;3.78;;
48635;SDS011;34429;52.332;5.614;2022-12-08T04:51:50;8.38;;;3.80;;
48635;SDS011;34429;52.332;5.614;2022-12-08T04:54:18;7.70;;;4.32;;
48635;SDS011;34429;52.332;5.614;2022-12-08T04:56:47;6.00;;;3.63;;
48635;SDS011;34429;52.332;5.614;2022-12-08T04:59:15;6.13;;;3.35;;
48635;SDS011;34429;52.332;5.614;2022-12-08T05:01:43;7.07;;;3.88;;
48635;SDS011;34429;52.332;5.614;2022-12-08T05:04:14;5.30;;;3.70;;
48635;SDS011;34429;52.332;5.614;2022-12-08T05:06:42;9.98;;;3.75;;
48635;SDS011;34429;52.332;5.614;2022-12-08T05:09:11;8.50;;;3.40;;
48635;SDS011;34429;52.332;5.614;2022-12-08T05:11:39;6.78;;;3.80;;
48635;SDS011;34429;52.332;5.614;2022-12-08T05:14:09;3.67;;;2.60;;
48635;SDS011;34429;52.332;5.614;2022-12-08T05:16:37;5.57;;;1.85;;
48635;SDS011;34429;52.332;5.614;2022-12-08T05:19:06;4.13;;;1.50;;
48635;SDS011;34429;52.332;5.614;2022-12-08T05:21:37;3.25;;;1.10;;
48635;SDS011;34429;52.332;5.614;2022-12-08T05:24:05;2.30;;;1.30;;
48635;SDS011;34429;52.332;5.614;2022-12-08T05:26:34;2.28;;;1.33;;
48635;SDS011;34429;52.332;5.614;2022-12-08T05:29:02;3.55;;;1.13;;
48635;SDS011;34429;52.332;5.614;2022-12-08T05:31:30;2.22;;;1.00;;
48635;SDS011;34429;52.332;5.614;2022-12-08T05:33:59;1.67;;;1.20;;
48635;SDS011;34429;52.332;5.614;2022-12-08T05:36:27;1.80;;;1.35;;
48635;SDS011;34429;52.332;5.614;2022-12-08T05:38:58;3.40;;;1.33;;
48635;SDS011;34429;52.332;5.614;2022-12-08T05:41:26;3.28;;;1.00;;
48635;SDS011;34429;52.332;5.614;2022-12-08T05:43:55;1.65;;;0.90;;
48635;SDS011;34429;52.332;5.614;2022-12-08T05:46:23;2.60;;;1.00;;
48635;SDS011;34429;52.332;5.614;2022-12-08T05:48:51;1.08;;;0.70;;
48635;SDS011;34429;52.332;5.614;2022-12-08T05:51:20;2.70;;;0.82;;
48635;SDS011;34429;52.332;5.614;2022-12-08T05:53:50;1.63;;;0.80;;
48635;SDS011;34429;52.332;5.614;2022-12-08T05:56:22;1.55;;;0.88;;
48635;SDS011;34429;52.332;5.614;2022-12-08T05:58:51;1.58;;;0.73;;
48635;SDS011;34429;52.332;5.614;2022-12-08T06:01:20;2.58;;;1.00;;
48635;SDS011;34429;52.332;5.614;2022-12-08T06:03:50;1.25;;;0.80;;
48635;SDS011;34429;52.332;5.614;2022-12-08T06:06:18;1.50;;;1.00;;
48635;SDS011;34429;52.332;5.614;2022-12-08T06:08:47;3.97;;;1.38;;
48635;SDS011;34429;52.332;5.614;2022-12-08T06:11:16;2.97;;;1.20;;
48635;SDS011;34429;52.332;5.614;2022-12-08T06:16:16;3.72;;;1.40;;
48635;SDS011;34429;52.332;5.614;2022-12-08T06:18:45;2.58;;;1.30;;
48635;SDS011;34429;52.332;5.614;2022-12-08T06:21:14;4.60;;;1.60;;
48635;SDS011;34429;52.332;5.614;2022-12-08T06:23:43;3.42;;;1.70;;
48635;SDS011;34429;52.332;5.614;2022-12-08T06:26:14;4.85;;;1.67;;
48635;SDS011;34429;52.332;5.614;2022-12-08T06:31:15;5.35;;;1.60;;
48635;SDS011;34429;52.332;5.614;2022-12-08T06:33:45;4.80;;;2.25;;
48635;SDS011;34429;52.332;5.614;2022-12-08T06:36:14;4.45;;;2.20;;
48635;SDS011;34429;52.332;5.614;2022-12-08T06:38:44;5.95;;;2.28;;
48635;SDS011;34429;52.332;5.614;2022-12-08T06:41:16;3.60;;;2.13;;
48635;SDS011;34429;52.332;5.614;2022-12-08T06:43:45;4.20;;;2.05;;
48635;SDS011;34429;52.332;5.614;2022-12-08T06:46:16;3.83;;;1.80;;
48635;SDS011;34429;52.332;5.614;2022-12-08T06:48:46;6.28;;;1.80;;
48635;SDS011;34429;52.332;5.614;2022-12-08T06:51:15;2.38;;;1.48;;
48635;SDS011;34429;52.332;5.614;2022-12-08T06:53:46;6.63;;;2.17;;
48635;SDS011;34429;52.332;5.614;2022-12-08T06:56:14;4.87;;;1.70;;
48635;SDS011;34429;52.332;5.614;2022-12-08T07:01:12;3.97;;;1.60;;
48635;SDS011;34429;52.332;5.614;2022-12-08T07:03:43;6.43;;;2.58;;
48635;SDS011;34429;52.332;5.614;2022-12-08T07:06:13;5.88;;;2.33;;
48635;SDS011;34429;52.332;5.614;2022-12-08T07:08:42;5.93;;;2.30;;
48635;SDS011;34429;52.332;5.614;2022-12-08T07:11:11;4.73;;;2.70;;
48635;SDS011;34429;52.332;5.614;2022-12-08T07:13:39;3.53;;;2.22;;
48635;SDS011;34429;52.332;5.614;2022-12-08T07:16:08;5.10;;;2.28;;
48635;SDS011;34429;52.332;5.614;2022-12-08T07:18:38;5.55;;;2.80;;
48635;SDS011;34429;52.332;5.614;2022-12-08T07:21:10;4.32;;;3.47;;
48635;SDS011;34429;52.332;5.614;2022-12-08T07:23:39;4.95;;;3.03;;
48635;SDS011;34429;52.332;5.614;2022-12-08T07:26:09;4.85;;;2.67;;
48635;SDS011;34429;52.332;5.614;2022-12-08T07:28:39;5.55;;;3.63;;
48635;SDS011;34429;52.332;5.614;2022-12-08T07:31:14;5.63;;;3.00;;
48635;SDS011;34429;52.332;5.614;2022-12-08T07:33:44;6.70;;;3.30;;
48635;SDS011;34429;52.332;5.614;2022-12-08T07:38:45;5.53;;;3.30;;
48635;SDS011;34429;52.332;5.614;2022-12-08T07:41:13;5.18;;;3.15;;
48635;SDS011;34429;52.332;5.614;2022-12-08T07:43:43;8.38;;;3.85;;
48635;SDS011;34429;52.332;5.614;2022-12-08T07:46:13;6.40;;;3.42;;
48635;SDS011;34429;52.332;5.614;2022-12-08T07:48:42;4.95;;;3.30;;
48635;SDS011;34429;52.332;5.614;2022-12-08T07:51:11;6.40;;;3.27;;
48635;SDS011;34429;52.332;5.614;2022-12-08T07:53:44;6.20;;;3.15;;
48635;SDS011;34429;52.332;5.614;2022-12-08T07:56:13;5.30;;;2.92;;
48635;SDS011;34429;52.332;5.614;2022-12-08T07:58:42;4.97;;;3.53;;
48635;SDS011;34429;52.332;5.614;2022-12-08T08:01:22;4.40;;;2.92;;
48635;SDS011;34429;52.332;5.614;2022-12-08T08:03:51;5.80;;;3.10;;
48635;SDS011;34429;52.332;5.614;2022-12-08T08:08:51;6.15;;;3.03;;
48635;SDS011;34429;52.332;5.614;2022-12-08T08:11:20;7.50;;;3.10;;
48635;SDS011;34429;52.332;5.614;2022-12-08T08:13:49;6.85;;;2.95;;
48635;SDS011;34429;52.332;5.614;2022-12-08T08:18:47;3.80;;;2.73;;
48635;SDS011;34429;52.332;5.614;2022-12-08T08:23:46;3.50;;;2.60;;
48635;SDS011;34429;52.332;5.614;2022-12-08T08:26:17;7.10;;;2.80;;
48635;SDS011;34429;52.332;5.614;2022-12-08T08:28:45;5.10;;;3.53;;
48635;SDS011;34429;52.332;5.614;2022-12-08T08:31:14;6.13;;;3.50;;
48635;SDS011;34429;52.332;5.614;2022-12-08T08:33:43;7.50;;;3.60;;
48635;SDS011;34429;52.332;5.614;2022-12-08T08:36:12;6.07;;;2.90;;
48635;SDS011;34429;52.332;5.614;2022-12-08T08:38:41;4.82;;;2.65;;
48635;SDS011;34429;52.332;5.614;2022-12-08T08:41:09;5.60;;;3.10;;
48635;SDS011;34429;52.332;5.614;2022-12-08T08:43:41;3.83;;;2.55;;
48635;SDS011;34429;52.332;5.614;2022-12-08T08:46:09;5.70;;;3.13;;
48635;SDS011;34429;52.332;5.614;2022-12-08T08:48:37;5.13;;;3.20;;
48635;SDS011;34429;52.332;5.614;2022-12-08T08:51:06;9.93;;;3.80;;
48635;SDS011;34429;52.332;5.614;2022-12-08T08:53:36;7.70;;;3.35;;
48635;SDS011;34429;52.332;5.614;2022-12-08T08:56:07;5.97;;;3.28;;
48635;SDS011;34429;52.332;5.614;2022-12-08T08:58:36;6.28;;;3.38;;
48635;SDS011;34429;52.332;5.614;2022-12-08T09:01:07;5.88;;;3.50;;
48635;SDS011;34429;52.332;5.614;2022-12-08T09:03:36;4.75;;;3.08;;
48635;SDS011;34429;52.332;5.614;2022-12-08T09:06:04;5.53;;;3.40;;
48635;SDS011;34429;52.332;5.614;2022-12-08T09:08:33;5.57;;;3.10;;
48635;SDS011;34429;52.332;5.614;2022-12-08T09:11:01;5.53;;;3.00;;
48635;SDS011;34429;52.332;5.614;2022-12-08T09:13:29;7.00;;;4.35;;
48635;SDS011;34429;52.332;5.614;2022-12-08T09:15:58;7.80;;;3.45;;
48635;SDS011;34429;52.332;5.614;2022-12-08T09:18:30;5.50;;;2.97;;
48635;SDS011;34429;52.332;5.614;2022-12-08T09:21:02;7.32;;;3.63;;
48635;SDS011;34429;52.332;5.614;2022-12-08T09:23:32;6.40;;;3.38;;
48635;SDS011;34429;52.332;5.614;2022-12-08T09:26:01;6.95;;;2.95;;
48635;SDS011;34429;52.332;5.614;2022-12-08T09:28:30;4.47;;;2.90;;
48635;SDS011;34429;52.332;5.614;2022-12-08T09:30:59;5.60;;;2.93;;
48635;SDS011;34429;52.332;5.614;2022-12-08T09:33:27;6.32;;;3.03;;
48635;SDS011;34429;52.332;5.614;2022-12-08T09:36:00;4.18;;;2.65;;
48635;SDS011;34429;52.332;5.614;2022-12-08T09:38:29;5.30;;;3.33;;
48635;SDS011;34429;52.332;5.614;2022-12-08T09:40:57;6.07;;;2.80;;
48635;SDS011;34429;52.332;5.614;2022-12-08T09:43:39;5.90;;;2.78;;
48635;SDS011;34429;52.332;5.614;2022-12-08T09:46:22;5.97;;;2.90;;
48635;SDS011;34429;52.332;5.614;2022-12-08T09:48:53;6.30;;;2.95;;
48635;SDS011;34429;52.332;5.614;2022-12-08T09:51:26;4.63;;;2.55;;
48635;SDS011;34429;52.332;5.614;2022-12-08T09:54:00;5.60;;;2.92;;
48635;SDS011;34429;52.332;5.614;2022-12-08T09:56:34;5.75;;;2.75;;
48635;SDS011;34429;52.332;5.614;2022-12-08T09:59:05;4.35;;;3.22;;
48635;SDS011;34429;52.332;5.614;2022-12-08T10:01:43;4.20;;;3.10;;
48635;SDS011;34429;52.332;5.614;2022-12-08T10:04:13;4.50;;;3.03;;
48635;SDS011;34429;52.332;5.614;2022-12-08T10:06:50;4.75;;;3.70;;
48635;SDS011;34429;52.332;5.614;2022-12-08T10:09:30;4.18;;;2.97;;
48635;SDS011;34429;52.332;5.614;2022-12-08T10:12:08;5.05;;;3.28;;
48635;SDS011;34429;52.332;5.614;2022-12-08T10:14:42;6.35;;;3.78;;
48635;SDS011;34429;52.332;5.614;2022-12-08T10:17:15;7.78;;;4.32;;
48635;SDS011;34429;52.332;5.614;2022-12-08T10:19:46;8.68;;;3.15;;
48635;SDS011;34429;52.332;5.614;2022-12-08T10:22:21;4.43;;;3.33;;
48635;SDS011;34429;52.332;5.614;2022-12-08T10:24:56;7.60;;;3.45;;
48635;SDS011;34429;52.332;5.614;2022-12-08T10:27:27;5.50;;;3.10;;
48635;SDS011;34429;52.332;5.614;2022-12-08T10:29:55;3.80;;;2.88;;
48635;SDS011;34429;52.332;5.614;2022-12-08T10:32:24;4.43;;;2.80;;
48635;SDS011;34429;52.332;5.614;2022-12-08T10:35:03;6.47;;;3.50;;
48635;SDS011;34429;52.332;5.614;2022-12-08T10:37:35;3.47;;;2.50;;
48635;SDS011;34429;52.332;5.614;2022-12-08T10:40:08;3.78;;;2.60;;
48635;SDS011;34429;52.332;5.614;2022-12-08T10:42:39;2.90;;;2.42;;
48635;SDS011;34429;52.332;5.614;2022-12-08T10:45:22;6.47;;;2.88;;
48635;SDS011;34429;52.332;5.614;2022-12-08T10:47:57;3.25;;;2.58;;
48635;SDS011;34429;52.332;5.614;2022-12-08T10:50:29;3.45;;;1.90;;
48635;SDS011;34429;52.332;5.614;2022-12-08T10:53:12;2.92;;;2.50;;
48635;SDS011;34429;52.332;5.614;2022-12-08T10:55:42;3.72;;;1.90;;
48635;SDS011;34429;52.332;5.614;2022-12-08T10:58:22;4.97;;;1.92;;
48635;SDS011;34429;52.332;5.614;2022-12-08T11:00:55;1.88;;;1.42;;
48635;SDS011;34429;52.332;5.614;2022-12-08T11:03:26;2.70;;;1.75;;
48635;SDS011;34429;52.332;5.614;2022-12-08T11:05:57;3.50;;;1.45;;
48635;SDS011;34429;52.332;5.614;2022-12-08T11:08:30;2.58;;;1.75;;
48635;SDS011;34429;52.332;5.614;2022-12-08T11:10:58;3.20;;;1.23;;
48635;SDS011;34429;52.332;5.614;2022-12-08T11:13:27;4.28;;;1.48;;
48635;SDS011;34429;52.332;5.614;2022-12-08T11:15:55;3.47;;;1.42;;
48635;SDS011;34429;52.332;5.614;2022-12-08T11:18:24;4.85;;;1.40;;
48635;SDS011;34429;52.332;5.614;2022-12-08T11:20:57;3.35;;;1.30;;
48635;SDS011;34429;52.332;5.614;2022-12-08T11:23:31;2.67;;;1.40;;
48635;SDS011;34429;52.332;5.614;2022-12-08T11:26:04;3.35;;;1.30;;
48635;SDS011;34429;52.332;5.614;2022-12-08T11:28:37;1.88;;;1.10;;
48635;SDS011;34429;52.332;5.614;2022-12-08T11:31:10;2.35;;;1.30;;
48635;SDS011;34429;52.332;5.614;2022-12-08T11:33:47;4.35;;;1.40;;
48635;SDS011;34429;52.332;5.614;2022-12-08T11:36:18;2.80;;;1.40;;
48635;SDS011;34429;52.332;5.614;2022-12-08T11:38:52;3.95;;;1.23;;
48635;SDS011;34429;52.332;5.614;2022-12-08T11:41:24;5.32;;;1.50;;
48635;SDS011;34429;52.332;5.614;2022-12-08T11:43:58;4.53;;;1.50;;
48635;SDS011;34429;52.332;5.614;2022-12-08T11:46:33;4.45;;;1.23;;
48635;SDS011;34429;52.332;5.614;2022-12-08T11:49:08;0.70;;;0.70;;
48635;SDS011;34429;52.332;5.614;2022-12-08T11:51:39;1.20;;;1.05;;
48635;SDS011;34429;52.332;5.614;2022-12-08T11:54:17;2.88;;;1.30;;
48635;SDS011;34429;52.332;5.614;2022-12-08T11:56:50;3.05;;;1.00;;
48635;SDS011;34429;52.332;5.614;2022-12-08T11:59:23;1.73;;;0.80;;
48635;SDS011;34429;52.332;5.614;2022-12-08T12:01:56;2.35;;;1.13;;
48635;SDS011;34429;52.332;5.614;2022-12-08T12:04:26;1.50;;;1.08;;
48635;SDS011;34429;52.332;5.614;2022-12-08T12:10:17;2.53;;;1.27;;
48635;SDS011;34429;52.332;5.614;2022-12-08T12:13:04;4.45;;;1.67;;
48635;SDS011;34429;52.332;5.614;2022-12-08T12:15:48;2.58;;;1.33;;
48635;SDS011;34429;52.332;5.614;2022-12-08T12:18:34;2.90;;;1.80;;
48635;SDS011;34429;52.332;5.614;2022-12-08T12:21:10;4.05;;;1.73;;
48635;SDS011;34429;52.332;5.614;2022-12-08T12:23:43;3.92;;;1.75;;
48635;SDS011;34429;52.332;5.614;2022-12-08T12:26:18;4.63;;;1.70;;
48635;SDS011;34429;52.332;5.614;2022-12-08T12:28:49;4.40;;;1.77;;
48635;SDS011;34429;52.332;5.614;2022-12-08T12:31:21;1.90;;;1.30;;
48635;SDS011;34429;52.332;5.614;2022-12-08T12:33:52;4.18;;;1.67;;
48635;SDS011;34429;52.332;5.614;2022-12-08T12:36:24;4.22;;;1.45;;
48635;SDS011;34429;52.332;5.614;2022-12-08T12:38:53;3.47;;;1.55;;
48635;SDS011;34429;52.332;5.614;2022-12-08T12:41:33;2.95;;;1.73;;
48635;SDS011;34429;52.332;5.614;2022-12-08T12:44:20;3.17;;;1.80;;
48635;SDS011;34429;52.332;5.614;2022-12-08T12:46:52;3.17;;;2.00;;
48635;SDS011;34429;52.332;5.614;2022-12-08T12:58:21;2.85;;;1.58;;
48635;SDS011;34429;52.332;5.614;2022-12-08T13:04:04;5.17;;;2.00;;
48635;SDS011;34429;52.332;5.614;2022-12-08T13:06:35;2.88;;;1.70;;
48635;SDS011;34429;52.332;5.614;2022-12-08T13:09:14;2.42;;;1.42;;
48635;SDS011;34429;52.332;5.614;2022-12-08T13:11:51;4.28;;;1.63;;
48635;SDS011;34429;52.332;5.614;2022-12-08T13:14:28;2.95;;;1.98;;
48635;SDS011;34429;52.332;5.614;2022-12-08T13:16:59;4.80;;;2.15;;
48635;SDS011;34429;52.332;5.614;2022-12-08T13:19:31;2.92;;;1.83;;
48635;SDS011;34429;52.332;5.614;2022-12-08T13:22:00;3.92;;;2.30;;
48635;SDS011;34429;52.332;5.614;2022-12-08T13:24:30;4.47;;;2.00;;
48635;SDS011;34429;52.332;5.614;2022-12-08T13:32:58;5.82;;;2.25;;
48635;SDS011;34429;52.332;5.614;2022-12-08T13:35:28;4.10;;;2.22;;
48635;SDS011;34429;52.332;5.614;2022-12-08T13:37:57;6.00;;;2.58;;
48635;SDS011;34429;52.332;5.614;2022-12-08T13:42:58;4.45;;;2.50;;
48635;SDS011;34429;52.332;5.614;2022-12-08T13:45:37;2.85;;;2.17;;
48635;SDS011;34429;52.332;5.614;2022-12-08T13:48:12;7.32;;;2.33;;
48635;SDS011;34429;52.332;5.614;2022-12-08T13:50:46;3.53;;;2.00;;
48635;SDS011;34429;52.332;5.614;2022-12-08T13:53:20;3.17;;;2.10;;
48635;SDS011;34429;52.332;5.614;2022-12-08T13:55:53;4.28;;;1.90;;
48635;SDS011;34429;52.332;5.614;2022-12-08T13:58:25;4.28;;;2.30;;
48635;SDS011;34429;52.332;5.614;2022-12-08T14:00:57;3.30;;;2.20;;
48635;SDS011;34429;52.332;5.614;2022-12-08T14:03:37;3.25;;;2.00;;
48635;SDS011;34429;52.332;5.614;2022-12-08T14:06:13;4.45;;;2.13;;
48635;SDS011;34429;52.332;5.614;2022-12-08T14:08:44;5.82;;;2.50;;
48635;SDS011;34429;52.332;5.614;2022-12-08T14:11:19;3.70;;;2.17;;
48635;SDS011;34429;52.332;5.614;2022-12-08T14:14:03;4.18;;;2.10;;
48635;SDS011;34429;52.332;5.614;2022-12-08T14:16:36;4.15;;;2.60;;
48635;SDS011;34429;52.332;5.614;2022-12-08T14:19:15;5.03;;;2.55;;
48635;SDS011;34429;52.332;5.614;2022-12-08T14:21:45;4.00;;;2.30;;
48635;SDS011;34429;52.332;5.614;2022-12-08T14:24:15;4.45;;;2.75;;
48635;SDS011;34429;52.332;5.614;2022-12-08T14:26:43;8.02;;;2.67;;
48635;SDS011;34429;52.332;5.614;2022-12-08T14:29:16;4.22;;;2.60;;
48635;SDS011;34429;52.332;5.614;2022-12-08T14:32:00;5.15;;;3.00;;
48635;SDS011;34429;52.332;5.614;2022-12-08T14:34:31;3.80;;;2.83;;
48635;SDS011;34429;52.332;5.614;2022-12-08T14:37:04;5.85;;;2.83;;
48635;SDS011;34429;52.332;5.614;2022-12-08T14:39:35;6.00;;;2.85;;
48635;SDS011;34429;52.332;5.614;2022-12-08T14:42:03;5.57;;;3.70;;
48635;SDS011;34429;52.332;5.614;2022-12-08T14:44:34;7.78;;;3.20;;
48635;SDS011;34429;52.332;5.614;2022-12-08T14:47:07;9.00;;;3.55;;
48635;SDS011;34429;52.332;5.614;2022-12-08T14:49:39;5.40;;;3.45;;
48635;SDS011;34429;52.332;5.614;2022-12-08T14:52:08;5.22;;;3.60;;
48635;SDS011;34429;52.332;5.614;2022-12-08T14:54:38;4.30;;;3.08;;
48635;SDS011;34429;52.332;5.614;2022-12-08T14:57:10;6.40;;;3.67;;
48635;SDS011;34429;52.332;5.614;2022-12-08T14:59:41;5.90;;;3.85;;
48635;SDS011;34429;52.332;5.614;2022-12-08T15:02:12;8.13;;;4.18;;
48635;SDS011;34429;52.332;5.614;2022-12-08T15:04:56;8.93;;;3.90;;
48635;SDS011;34429;52.332;5.614;2022-12-08T15:07:27;5.78;;;4.35;;
48635;SDS011;34429;52.332;5.614;2022-12-08T15:10:08;7.43;;;4.10;;
48635;SDS011;34429;52.332;5.614;2022-12-08T15:12:56;6.82;;;4.18;;
48635;SDS011;34429;52.332;5.614;2022-12-08T15:15:27;7.22;;;3.97;;
48635;SDS011;34429;52.332;5.614;2022-12-08T15:17:57;6.47;;;4.40;;
48635;SDS011;34429;52.332;5.614;2022-12-08T15:20:33;8.43;;;5.47;;
48635;SDS011;34429;52.332;5.614;2022-12-08T15:23:16;8.70;;;4.88;;
48635;SDS011;34429;52.332;5.614;2022-12-08T15:25:47;9.35;;;4.75;;
48635;SDS011;34429;52.332;5.614;2022-12-08T15:28:17;7.60;;;5.50;;
48635;SDS011;34429;52.332;5.614;2022-12-08T15:30:47;9.20;;;6.60;;
48635;SDS011;34429;52.332;5.614;2022-12-08T15:33:15;9.03;;;5.63;;
48635;SDS011;34429;52.332;5.614;2022-12-08T15:35:46;8.68;;;5.97;;
48635;SDS011;34429;52.332;5.614;2022-12-08T15:38:16;7.30;;;5.05;;
48635;SDS011;34429;52.332;5.614;2022-12-08T15:40:49;8.23;;;5.30;;
48635;SDS011;34429;52.332;5.614;2022-12-08T15:43:18;6.60;;;4.57;;
48635;SDS011;34429;52.332;5.614;2022-12-08T15:45:46;6.47;;;4.90;;
48635;SDS011;34429;52.332;5.614;2022-12-08T15:48:16;8.95;;;5.50;;
48635;SDS011;34429;52.332;5.614;2022-12-08T15:50:48;6.70;;;4.80;;
48635;SDS011;34429;52.332;5.614;2022-12-08T15:53:17;9.45;;;6.00;;
48635;SDS011;34429;52.332;5.614;2022-12-08T15:55:46;13.48;;;6.40;;
48635;SDS011;34429;52.332;5.614;2022-12-08T15:58:17;11.32;;;6.30;;
48635;SDS011;34429;52.332;5.614;2022-12-08T16:00:47;10.18;;;5.35;;